East Midlands area, Mode-S flight log (local time) Last Update 24-Jan-21 22:00
Flights below 1500ft From 24-Jan-21 06:57
Weather - EGNX 242150Z 35006KT CAVOK M02/M03 Q1000
     Min Alt<---Altitude--->On Ground 
Mode SCallsignRegType Time (date)MinFirstLastFirstLastSquawk
400CACREV21TG-NOSEC40213:19 (24)7003,1003,100  6162
400CA9REV61TG-FINDF40612:46 (24)5003,000500  4550
42431BABW9445VP-BBPB74812:24 (24)250FL66275 Y1424
400CACREV21TG-NOSEC40212:20 (24)5005003,900  4551
4CA7F9ABR481EI-STJB73412:10 (24)275275FL294  0510
40709DHLE29G-LNACA16912:09 (24)9009001,000  0020
405F33DHK112G-DHLGB76312:07 (24)300FL165300  4153
400CA9REV61TG-FINDF40611:53 (24)5005004,000  4550
A1E14AABX964N220CYB76311:34 (24)275300FL122  7657
407359REV34TG-RVVESF3411:32 (24)3504,650350  1421
40709DG-LNACA16911:26 (24)725725725  
400CA9REV61TG-FINDF40611:21 (24)5003,000700  4550
4CA7F9ABR480EI-STJB73410:37 (24)400FL286400  4126
400CA9REV61TG-FINDF40610:34 (24)5255254,025  4550
508020ADB305FUR-82073A12410:29 (24)275FL289275 Y4152
400CADREV4NDG-MINDC40410:02 (24)5251,725525  4561
4CA515BCS96VEI-OZLA30609:26 (24)375375FL178Y 2251
4CA27BRYR604EI-DHRB73809:03 (24)325325400  4551
407359REV34TG-RVVESF3408:39 (24)375375FL140  4221
400CADREV4NDG-MINDC40408:17 (24)5255252,925  4564
4CAFB5RYR607EI-GSIB73807:56 (24)300300375  4550